Time;durP1;ratioP1;P1;durP2;ratioP2;P2;SDS_P1;SDS_P2;PMS_P1;PMS_P2;Temp;Humidity;BMP_temperature;BMP_pressure;BME280_temperature;BME280_humidity;BME280_pressure;Samples;Min_cycle;Max_cycle;Signal;HPM_P1;HPM_P2
2021/01/16 00:00:46;;;;;;;;;;;16.90;52.20;;;;;;5052139;28;19925;-56
2021/01/16 00:03:12;;;;;;;;;;;16.90;52.10;;;;;;5038600;28;20396;-56
2021/01/16 00:05:39;;;;;;;;;;;16.90;52.10;;;;;;5048774;28;19931;-56
2021/01/16 00:08:07;;;;;;;;;;;16.80;52.10;;;;;;5041460;28;19935;-55
2021/01/16 00:10:34;;;;;;;;;;;16.90;52.10;;;;;;5048277;28;19929;-55
2021/01/16 00:13:01;;;;;;;;;;;16.80;52.00;;;;;;5041607;28;19933;-56
2021/01/16 00:15:27;;;;;;;;;;;16.80;52.00;;;;;;5048677;28;20365;-55
2021/01/16 00:17:57;;;;;;;;;;;16.80;52.00;;;;;;5045776;28;19929;-54
2021/01/16 00:20:23;;;;;;;;;;;16.80;51.90;;;;;;5046163;28;19924;-55
2021/01/16 00:22:50;;;;;;;;;;;16.80;52.00;;;;;;5051334;28;19932;-55
2021/01/16 00:25:16;;;;;;;;;;;16.80;51.90;;;;;;5039763;28;19971;-55
2021/01/16 00:27:43;;;;;;;;;;;16.80;52.00;;;;;;5048972;28;20385;-55
2021/01/16 00:30:10;;;;;;;;;;;16.80;52.00;;;;;;5040394;28;19939;-55
2021/01/16 00:32:37;;;;;;;;;;;16.80;52.00;;;;;;5049889;28;19924;-55
2021/01/16 00:35:08;;;;;;;;;;;16.80;52.00;;;;;;5039231;28;20618;-57
2021/01/16 00:37:34;;;;;;;;;;;16.80;52.00;;;;;;5049684;28;19928;-55
2021/01/16 00:40:05;;;;;;;;;;;16.70;52.00;;;;;;5040697;28;19925;-57
2021/01/16 00:42:32;;;;;;;;;;;16.80;52.00;;;;;;5031876;28;19925;-55
2021/01/16 00:44:58;;;;;;;;;;;16.70;51.90;;;;;;5038027;28;19925;-55
2021/01/16 00:47:25;;;;;;;;;;;16.70;52.00;;;;;;5048765;28;19925;-55
2021/01/16 00:49:51;;;;;;;;;;;16.70;52.10;;;;;;5042326;28;19925;-56
2021/01/16 00:52:17;;;;;;;;;;;16.70;52.10;;;;;;5044631;28;19924;-55
2021/01/16 00:54:43;;;;;;;;;;;16.70;52.00;;;;;;5041009;28;19939;-55
2021/01/16 00:57:09;;;;;;;;;;;16.70;52.00;;;;;;5048625;28;20392;-55
2021/01/16 00:59:36;;;;;;;;;;;16.70;52.10;;;;;;5047906;28;19924;-55
2021/01/16 01:02:02;;;;;;;;;;;16.70;52.10;;;;;;5039295;28;19925;-55
2021/01/16 01:04:28;;;;;;;;;;;16.60;52.00;;;;;;5048964;28;19939;-55
2021/01/16 01:06:54;;;;;;;;;;;16.70;52.10;;;;;;5038126;28;19929;-56
2021/01/16 01:09:21;;;;;;;;;;;16.60;52.00;;;;;;5049947;28;19925;-56
2021/01/16 01:11:49;;;;;;;;;;;16.70;52.10;;;;;;5037429;28;19925;-57
2021/01/16 01:14:15;;;;;;;;;;;16.60;52.10;;;;;;5048137;28;19929;-54
2021/01/16 01:16:41;;;;;;;;;;;16.60;52.10;;;;;;5038718;28;19928;-56
2021/01/16 01:19:12;;;;;;;;;;;16.60;52.10;;;;;;5049444;28;19956;-56
2021/01/16 01:21:38;;;;;;;;;;;16.60;52.10;;;;;;5040155;28;19925;-57
2021/01/16 01:24:04;;;;;;;;;;;16.60;52.20;;;;;;5049756;28;19933;-55
2021/01/16 01:26:31;;;;;;;;;;;16.60;52.20;;;;;;5036530;28;19931;-55
2021/01/16 01:28:57;;;;;;;;;;;16.50;52.10;;;;;;5047169;28;19925;-56
2021/01/16 01:31:23;;;;;;;;;;;16.60;52.20;;;;;;5038465;28;19925;-55
2021/01/16 01:33:49;;;;;;;;;;;16.60;52.10;;;;;;5047443;28;19931;-55
2021/01/16 01:36:16;;;;;;;;;;;16.50;52.10;;;;;;5038993;28;19931;-54
2021/01/16 01:38:42;;;;;;;;;;;16.60;52.20;;;;;;5046071;28;19933;-55
2021/01/16 01:41:08;;;;;;;;;;;16.50;52.20;;;;;;5048690;28;19928;-55
2021/01/16 01:43:35;;;;;;;;;;;16.50;52.20;;;;;;5038804;28;19928;-55
2021/01/16 01:46:06;;;;;;;;;;;16.50;52.20;;;;;;5047683;28;20342;-55
2021/01/16 01:48:33;;;;;;;;;;;16.50;52.20;;;;;;5040797;28;19929;-56
2021/01/16 01:50:59;;;;;;;;;;;16.50;52.20;;;;;;5049115;28;19962;-55
2021/01/16 01:53:28;;;;;;;;;;;16.50;52.20;;;;;;5038125;28;20415;-55
2021/01/16 01:55:55;;;;;;;;;;;16.50;52.20;;;;;;5033363;28;19925;-56
2021/01/16 01:58:23;;;;;;;;;;;16.50;52.20;;;;;;5038706;28;19932;-56
2021/01/16 02:00:53;;;;;;;;;;;16.50;52.20;;;;;;5048177;28;19933;-55
2021/01/16 02:03:23;;;;;;;;;;;16.50;52.20;;;;;;5040064;28;20463;-55
2021/01/16 02:05:53;;;;;;;;;;;16.50;52.20;;;;;;5046550;28;19970;-55
2021/01/16 02:08:19;;;;;;;;;;;16.40;52.10;;;;;;5037055;28;19931;-55
2021/01/16 02:10:45;;;;;;;;;;;16.50;52.30;;;;;;5046054;28;19939;-55
2021/01/16 02:13:12;;;;;;;;;;;16.50;52.30;;;;;;5037032;28;19967;-55
2021/01/16 02:15:50;;;;;;;;;;;16.40;52.20;;;;;;5049221;28;19931;-55
2021/01/16 02:18:27;;;;;;;;;;;16.40;52.20;;;;;;5037750;28;19932;-55
2021/01/16 02:20:54;;;;;;;;;;;16.40;52.20;;;;;;5048993;28;19925;-55
2021/01/16 02:23:28;;;;;;;;;;;16.40;52.30;;;;;;5038078;28;19933;-55
2021/01/16 02:26:13;;;;;;;;;;;16.40;52.30;;;;;;5048791;28;20416;-55
2021/01/16 02:28:44;;;;;;;;;;;16.40;52.20;;;;;;5040757;28;19933;-55
2021/01/16 02:31:11;;;;;;;;;;;16.40;52.30;;;;;;5048474;28;19939;-55
2021/01/16 02:33:40;;;;;;;;;;;16.40;52.20;;;;;;5039244;28;19932;-55
2021/01/16 02:36:06;;;;;;;;;;;16.40;52.30;;;;;;5048008;28;19933;-55
2021/01/16 02:38:51;;;;;;;;;;;16.40;52.40;;;;;;5046862;28;19943;-55
2021/01/16 02:41:26;;;;;;;;;;;16.40;52.40;;;;;;5047814;28;19925;-56
2021/01/16 02:44:30;;;;;;;;;;;16.40;52.40;;;;;;5046687;28;19959;-56
2021/01/16 02:47:02;;;;;;;;;;;16.40;52.50;;;;;;4962167;28;19930;-56
2021/01/16 02:49:28;;;;;;;;;;;16.30;52.40;;;;;;5025131;28;19924;-55
2021/01/16 02:52:03;;;;;;;;;;;16.30;52.40;;;;;;5045776;28;19929;-56
2021/01/16 02:54:35;;;;;;;;;;;16.30;52.40;;;;;;5040351;28;19925;-56
2021/01/16 02:57:03;;;;;;;;;;;16.40;52.50;;;;;;5046541;28;20293;-56
2021/01/16 02:59:30;;;;;;;;;;;16.30;52.40;;;;;;5049011;28;19939;-56
2021/01/16 03:01:57;;;;;;;;;;;16.30;52.40;;;;;;5037727;28;20377;-56
2021/01/16 03:04:23;;;;;;;;;;;16.30;52.50;;;;;;5046279;28;19936;-55
2021/01/16 03:06:50;;;;;;;;;;;16.30;52.40;;;;;;5034590;28;19925;-55
2021/01/16 03:09:18;;;;;;;;;;;16.30;52.60;;;;;;5045818;28;19943;-57
2021/01/16 03:11:44;;;;;;;;;;;16.30;52.50;;;;;;5034487;28;19925;-55
2021/01/16 03:14:14;;;;;;;;;;;16.30;52.50;;;;;;5045480;28;19929;-56
2021/01/16 03:16:51;;;;;;;;;;;16.30;52.50;;;;;;5038872;28;19960;-55
2021/01/16 03:19:23;;;;;;;;;;;16.30;52.50;;;;;;5049583;28;20466;-56
2021/01/16 03:21:49;;;;;;;;;;;16.30;52.50;;;;;;5032572;28;20419;-56
2021/01/16 03:24:21;;;;;;;;;;;16.30;52.50;;;;;;5046293;28;19925;-56
2021/01/16 03:26:47;;;;;;;;;;;16.30;52.50;;;;;;5039961;28;19928;-57
2021/01/16 03:29:13;;;;;;;;;;;16.20;52.40;;;;;;5046559;28;21432;-56
2021/01/16 03:31:39;;;;;;;;;;;16.30;53.20;;;;;;5042782;28;20579;-54
2021/01/16 03:34:06;;;;;;;;;;;16.30;52.60;;;;;;5052709;28;19931;-55
2021/01/16 03:36:32;;;;;;;;;;;16.30;52.50;;;;;;5040568;28;19936;-54
2021/01/16 03:38:58;;;;;;;;;;;16.20;52.40;;;;;;5050464;28;20365;-55
2021/01/16 03:41:24;;;;;;;;;;;16.30;52.50;;;;;;5045452;28;19929;-54
2021/01/16 03:43:51;;;;;;;;;;;16.20;52.60;;;;;;5051478;28;19931;-56
2021/01/16 03:46:17;;;;;;;;;;;16.20;52.50;;;;;;5055217;28;19924;-56
2021/01/16 03:48:43;;;;;;;;;;;16.30;52.60;;;;;;5044915;28;19983;-56
2021/01/16 03:51:09;;;;;;;;;;;16.20;52.60;;;;;;5053883;28;20391;-54
2021/01/16 03:53:36;;;;;;;;;;;16.20;52.50;;;;;;5044239;28;19931;-54
2021/01/16 03:56:03;;;;;;;;;;;16.20;52.50;;;;;;5050453;28;19947;-55
2021/01/16 03:58:29;;;;;;;;;;;16.20;53.20;;;;;;5042623;28;19924;-54
2021/01/16 04:00:55;;;;;;;;;;;16.20;52.50;;;;;;5052323;28;19929;-55
2021/01/16 04:03:21;;;;;;;;;;;16.20;52.60;;;;;;5044730;28;19925;-56
2021/01/16 04:05:48;;;;;;;;;;;16.20;52.60;;;;;;5053927;28;19932;-56
2021/01/16 04:08:14;;;;;;;;;;;16.20;52.60;;;;;;5046361;28;19924;-56
2021/01/16 04:10:40;;;;;;;;;;;16.20;52.60;;;;;;5051404;28;19925;-56
2021/01/16 04:13:06;;;;;;;;;;;16.20;52.60;;;;;;5043035;28;20006;-56
2021/01/16 04:15:32;;;;;;;;;;;16.20;52.60;;;;;;5051759;28;20362;-56
2021/01/16 04:17:59;;;;;;;;;;;16.20;52.60;;;;;;5043777;28;19931;-57
2021/01/16 04:20:25;;;;;;;;;;;16.10;52.60;;;;;;5050918;28;19977;-56
2021/01/16 04:22:51;;;;;;;;;;;16.20;52.60;;;;;;5052854;28;19933;-56
2021/01/16 04:25:17;;;;;;;;;;;16.20;52.60;;;;;;5043322;28;19925;-57
2021/01/16 04:27:43;;;;;;;;;;;16.10;52.50;;;;;;5048458;28;20014;-56
2021/01/16 04:30:10;;;;;;;;;;;16.10;52.60;;;;;;5043456;28;19925;-56
2021/01/16 04:32:36;;;;;;;;;;;16.10;52.60;;;;;;5052757;28;19931;-55
2021/01/16 04:35:03;;;;;;;;;;;16.10;52.60;;;;;;5041742;28;19978;-55
2021/01/16 04:37:29;;;;;;;;;;;16.10;52.60;;;;;;5044075;28;19924;-56
2021/01/16 04:39:56;;;;;;;;;;;16.10;52.60;;;;;;5044231;28;19935;-55
2021/01/16 04:42:22;;;;;;;;;;;16.10;52.60;;;;;;5048661;28;19925;-55
2021/01/16 04:44:49;;;;;;;;;;;16.10;52.60;;;;;;5038903;28;19932;-55
2021/01/16 04:47:19;;;;;;;;;;;16.10;52.60;;;;;;5048509;28;19935;-55
2021/01/16 04:49:47;;;;;;;;;;;16.10;52.60;;;;;;5038459;28;19924;-55
2021/01/16 04:52:14;;;;;;;;;;;16.10;52.70;;;;;;5050662;28;19940;-56
2021/01/16 04:54:42;;;;;;;;;;;16.10;52.70;;;;;;5037796;28;19925;-54
2021/01/16 04:57:12;;;;;;;;;;;16.10;52.60;;;;;;5049632;28;19932;-55
2021/01/16 04:59:38;;;;;;;;;;;16.10;52.60;;;;;;5043588;28;19924;-55
2021/01/16 05:02:09;;;;;;;;;;;16.10;52.60;;;;;;5043009;28;20519;-54
2021/01/16 05:04:37;;;;;;;;;;;16.10;52.70;;;;;;5047793;28;19959;-56
2021/01/16 05:07:05;;;;;;;;;;;16.00;52.70;;;;;;5037815;28;19925;-56
2021/01/16 05:09:31;;;;;;;;;;;16.00;52.60;;;;;;5046411;28;19931;-55
2021/01/16 05:12:07;;;;;;;;;;;16.00;52.50;;;;;;5038753;28;20466;-55
2021/01/16 05:14:45;;;;;;;;;;;16.10;52.70;;;;;;5045091;28;20424;-55
2021/01/16 05:17:11;;;;;;;;;;;16.10;52.70;;;;;;5041221;28;19925;-55
2021/01/16 05:19:38;;;;;;;;;;;16.00;52.80;;;;;;5047958;28;19931;-54
2021/01/16 05:22:04;;;;;;;;;;;16.10;52.90;;;;;;5041584;28;19979;-55
2021/01/16 05:24:30;;;;;;;;;;;16.10;53.00;;;;;;5050048;28;20365;-54
2021/01/16 05:27:00;;;;;;;;;;;16.10;52.90;;;;;;5037861;28;19947;-55
2021/01/16 05:29:27;;;;;;;;;;;16.10;52.90;;;;;;5049359;28;19931;-56
2021/01/16 05:31:54;;;;;;;;;;;16.10;52.90;;;;;;5038337;28;19932;-56
2021/01/16 05:34:25;;;;;;;;;;;16.10;52.90;;;;;;5049173;28;19925;-55
2021/01/16 05:36:51;;;;;;;;;;;16.10;52.90;;;;;;5039004;28;19939;-55
2021/01/16 05:39:18;;;;;;;;;;;16.10;52.90;;;;;;5050066;28;19931;-54
2021/01/16 05:41:46;;;;;;;;;;;16.10;52.90;;;;;;5039558;28;19925;-55
2021/01/16 05:44:17;;;;;;;;;;;16.10;52.90;;;;;;5047490;28;19928;-55
2021/01/16 05:46:45;;;;;;;;;;;16.10;52.90;;;;;;5039815;28;19925;-55
2021/01/16 05:49:17;;;;;;;;;;;16.10;52.90;;;;;;5044312;28;20001;-55
2021/01/16 05:51:44;;;;;;;;;;;16.10;53.00;;;;;;5046529;28;19931;-56
2021/01/16 05:54:11;;;;;;;;;;;16.10;52.90;;;;;;5040045;28;20276;-56
2021/01/16 05:56:39;;;;;;;;;;;16.10;52.90;;;;;;5044659;28;19931;-56
2021/01/16 05:59:09;;;;;;;;;;;16.10;53.00;;;;;;5039644;28;19929;-56
2021/01/16 06:01:36;;;;;;;;;;;16.10;53.00;;;;;;5048943;28;20296;-56
2021/01/16 06:04:03;;;;;;;;;;;16.10;53.00;;;;;;5035376;28;20395;-56
2021/01/16 06:06:32;;;;;;;;;;;16.00;53.00;;;;;;5046339;28;20443;-56
2021/01/16 06:08:59;;;;;;;;;;;16.10;53.10;;;;;;5038774;28;19933;-56
2021/01/16 06:11:25;;;;;;;;;;;16.10;53.00;;;;;;5045978;28;19932;-56
2021/01/16 06:13:54;;;;;;;;;;;16.00;52.90;;;;;;5034878;28;19953;-56
2021/01/16 06:16:21;;;;;;;;;;;16.10;53.00;;;;;;5044479;28;19931;-56
2021/01/16 06:18:51;;;;;;;;;;;16.00;52.90;;;;;;5040533;28;19925;-56
2021/01/16 06:21:37;;;;;;;;;;;16.00;52.90;;;;;;5048260;28;19932;-56
2021/01/16 06:24:03;;;;;;;;;;;16.10;52.90;;;;;;5040361;28;20289;-56
2021/01/16 06:26:30;;;;;;;;;;;16.00;53.10;;;;;;5042354;28;19933;-56
2021/01/16 06:28:56;;;;;;;;;;;16.00;53.20;;;;;;5038425;28;19931;-56
2021/01/16 06:31:25;;;;;;;;;;;16.00;53.10;;;;;;5044993;28;19925;-56
2021/01/16 06:33:59;;;;;;;;;;;16.00;53.20;;;;;;5038844;28;19968;-57
2021/01/16 06:36:29;;;;;;;;;;;16.00;53.10;;;;;;5047270;28;20741;-56
2021/01/16 06:38:57;;;;;;;;;;;16.00;53.10;;;;;;5038728;28;20407;-56
2021/01/16 06:41:27;;;;;;;;;;;16.00;53.00;;;;;;5045686;28;19925;-56
2021/01/16 06:43:54;;;;;;;;;;;16.00;52.90;;;;;;5047293;28;19935;-56
2021/01/16 06:46:37;;;;;;;;;;;16.00;52.90;;;;;;5041724;28;20420;-56
2021/01/16 06:49:05;;;;;;;;;;;16.00;52.90;;;;;;5029132;28;20336;-56
2021/01/16 06:51:31;;;;;;;;;;;16.00;52.90;;;;;;5035872;28;20358;-56
2021/01/16 06:54:05;;;;;;;;;;;16.00;52.90;;;;;;5046122;28;20307;-56
2021/01/16 06:56:33;;;;;;;;;;;16.00;52.90;;;;;;5036184;28;19924;-56
2021/01/16 06:59:00;;;;;;;;;;;16.00;52.90;;;;;;5047255;28;19960;-56
2021/01/16 07:01:30;;;;;;;;;;;16.00;52.80;;;;;;5038083;28;19924;-56
2021/01/16 07:04:00;;;;;;;;;;;16.00;52.80;;;;;;5045774;28;19936;-56
2021/01/16 07:06:26;;;;;;;;;;;16.00;52.70;;;;;;5036266;28;19924;-54
2021/01/16 07:08:53;;;;;;;;;;;15.90;52.60;;;;;;5042492;28;19925;-55
2021/01/16 07:11:19;;;;;;;;;;;16.00;52.80;;;;;;5037123;28;19933;-55
2021/01/16 07:13:46;;;;;;;;;;;16.00;52.80;;;;;;5047470;28;20345;-55
2021/01/16 07:16:12;;;;;;;;;;;16.00;52.80;;;;;;5037349;28;19929;-54
2021/01/16 07:18:39;;;;;;;;;;;16.00;52.80;;;;;;5045908;28;19936;-55
2021/01/16 07:21:06;;;;;;;;;;;16.00;52.80;;;;;;5038703;28;19982;-55
2021/01/16 07:23:34;;;;;;;;;;;16.00;52.70;;;;;;5045039;28;19935;-54
2021/01/16 07:26:01;;;;;;;;;;;16.00;52.70;;;;;;5035381;28;20572;-56
2021/01/16 07:28:28;;;;;;;;;;;16.00;52.70;;;;;;5045984;28;20462;-54
2021/01/16 07:30:55;;;;;;;;;;;16.00;52.60;;;;;;5040171;28;20282;-54
2021/01/16 07:33:26;;;;;;;;;;;16.00;52.60;;;;;;5041106;28;20019;-54
2021/01/16 07:35:54;;;;;;;;;;;16.00;52.60;;;;;;5044607;28;20461;-55
2021/01/16 07:38:20;;;;;;;;;;;15.90;53.10;;;;;;5036490;28;19925;-55
2021/01/16 07:40:47;;;;;;;;;;;16.00;52.50;;;;;;5048048;28;19925;-55
2021/01/16 07:43:32;;;;;;;;;;;15.90;52.40;;;;;;5037898;28;19931;-57
2021/01/16 07:46:00;;;;;;;;;;;15.90;52.40;;;;;;5046401;28;19932;-57
2021/01/16 07:48:31;;;;;;;;;;;16.00;52.50;;;;;;5035341;28;20270;-55
2021/01/16 07:50:59;;;;;;;;;;;16.00;52.50;;;;;;5048152;28;19925;-55
2021/01/16 07:53:26;;;;;;;;;;;15.90;53.30;;;;;;5036372;28;19929;-55
2021/01/16 07:56:02;;;;;;;;;;;15.90;54.30;;;;;;5043432;28;19932;-55
2021/01/16 07:58:31;;;;;;;;;;;15.90;54.50;;;;;;5037169;28;20436;-55
2021/01/16 08:01:12;;;;;;;;;;;15.90;54.10;;;;;;5047349;28;19925;-55
2021/01/16 08:03:44;;;;;;;;;;;16.00;53.90;;;;;;5036821;28;19925;-54
2021/01/16 08:06:15;;;;;;;;;;;15.90;53.60;;;;;;5044670;28;19947;-55
2021/01/16 08:09:00;;;;;;;;;;;15.90;53.60;;;;;;5033667;28;19960;-54
2021/01/16 08:11:27;;;;;;;;;;;15.90;53.40;;;;;;5042011;28;19924;-54
2021/01/16 08:13:56;;;;;;;;;;;15.90;53.30;;;;;;5033059;28;19929;-55
2021/01/16 08:16:23;;;;;;;;;;;15.90;53.20;;;;;;5046065;28;19974;-54
2021/01/16 08:18:53;;;;;;;;;;;15.90;53.20;;;;;;5039402;28;20430;-57
2021/01/16 08:21:20;;;;;;;;;;;15.90;53.10;;;;;;5048466;28;20369;-55
2021/01/16 08:23:48;;;;;;;;;;;15.90;53.00;;;;;;5039249;28;19925;-55
2021/01/16 08:26:14;;;;;;;;;;;16.00;53.00;;;;;;5051017;28;19929;-56
2021/01/16 08:28:42;;;;;;;;;;;15.90;52.90;;;;;;5038180;28;19929;-55
2021/01/16 08:31:23;;;;;;;;;;;15.90;52.80;;;;;;5047186;28;19924;-55
2021/01/16 08:33:49;;;;;;;;;;;15.90;52.80;;;;;;5039463;28;20394;-54
2021/01/16 08:36:17;;;;;;;;;;;15.90;52.70;;;;;;5032819;28;19932;-56
2021/01/16 08:38:43;;;;;;;;;;;15.90;52.70;;;;;;5045309;28;20554;-55
2021/01/16 08:41:10;;;;;;;;;;;15.90;52.70;;;;;;5045617;28;19925;-56
2021/01/16 08:43:37;;;;;;;;;;;15.90;52.60;;;;;;5050354;28;19933;-56
2021/01/16 08:46:08;;;;;;;;;;;15.90;52.60;;;;;;5036198;28;20035;-56
2021/01/16 08:48:34;;;;;;;;;;;15.90;52.60;;;;;;5047086;28;20373;-56
2021/01/16 08:51:01;;;;;;;;;;;15.90;52.60;;;;;;5040879;28;19924;-56
2021/01/16 08:53:28;;;;;;;;;;;15.90;52.60;;;;;;5044691;28;19925;-56
2021/01/16 08:55:54;;;;;;;;;;;15.90;52.50;;;;;;5040242;28;20550;-56
2021/01/16 08:58:26;;;;;;;;;;;15.90;52.50;;;;;;5048421;28;19931;-56
2021/01/16 09:00:53;;;;;;;;;;;15.90;52.50;;;;;;5039247;28;19932;-56
2021/01/16 09:03:20;;;;;;;;;;;15.90;52.40;;;;;;5045687;28;19925;-56
2021/01/16 09:05:47;;;;;;;;;;;15.90;52.40;;;;;;5016745;28;19926;-56
2021/01/16 09:08:25;;;;;;;;;;;15.90;52.40;;;;;;5046942;28;19925;-56
2021/01/16 09:10:53;;;;;;;;;;;15.90;52.40;;;;;;5039362;28;20036;-56
2021/01/16 09:13:29;;;;;;;;;;;15.90;52.40;;;;;;5047521;28;19941;-55
2021/01/16 09:15:56;;;;;;;;;;;15.90;52.40;;;;;;5036033;28;19937;-54
2021/01/16 09:18:28;;;;;;;;;;;15.90;52.40;;;;;;5046985;28;20401;-56
2021/01/16 09:20:56;;;;;;;;;;;15.90;52.30;;;;;;5037617;28;19956;-56
2021/01/16 09:23:23;;;;;;;;;;;15.80;52.30;;;;;;5042960;28;19932;-56
2021/01/16 09:25:51;;;;;;;;;;;15.80;52.30;;;;;;5032469;28;19975;-56
2021/01/16 09:28:37;;;;;;;;;;;15.90;52.20;;;;;;5037320;28;20392;-56
2021/01/16 09:31:20;;;;;;;;;;;15.90;52.20;;;;;;5034195;28;19933;-56
2021/01/16 09:33:47;;;;;;;;;;;15.90;52.20;;;;;;5045297;28;20032;-56
2021/01/16 09:36:32;;;;;;;;;;;15.80;52.20;;;;;;5036280;28;19931;-56
2021/01/16 09:38:59;;;;;;;;;;;15.80;52.10;;;;;;5039618;28;19979;-56
2021/01/16 09:41:30;;;;;;;;;;;15.80;52.10;;;;;;5034142;28;20506;-56
2021/01/16 09:43:56;;;;;;;;;;;15.90;52.20;;;;;;5037994;28;19924;-56
2021/01/16 09:46:32;;;;;;;;;;;15.80;52.10;;;;;;5042065;28;19925;-55
2021/01/16 09:48:58;;;;;;;;;;;15.80;52.10;;;;;;5038316;28;20071;-56
2021/01/16 09:51:28;;;;;;;;;;;15.90;52.20;;;;;;5044681;28;19929;-56
2021/01/16 09:54:06;;;;;;;;;;;15.90;52.20;;;;;;5035235;28;20043;-56
2021/01/16 09:56:43;;;;;;;;;;;15.80;52.20;;;;;;5045323;28;20373;-55
2021/01/16 09:59:12;;;;;;;;;;;15.80;52.20;;;;;;5039658;28;19925;-55
2021/01/16 10:01:40;;;;;;;;;;;15.80;52.40;;;;;;5036431;28;20575;-56
2021/01/16 10:04:19;;;;;;;;;;;15.90;52.70;;;;;;5014615;28;19960;-55
2021/01/16 10:06:46;;;;;;;;;;;16.30;51.70;;;;;;5038625;28;19936;-55
2021/01/16 10:09:18;;;;;;;;;;;16.90;50.70;;;;;;5035955;28;19929;-56
2021/01/16 10:11:45;;;;;;;;;;;17.30;50.00;;;;;;5041692;28;19951;-57
2021/01/16 10:14:15;;;;;;;;;;;17.70;50.50;;;;;;5031307;28;19924;-56
2021/01/16 10:16:43;;;;;;;;;;;18.00;51.40;;;;;;5041865;28;20019;-56
2021/01/16 10:19:13;;;;;;;;;;;18.10;50.70;;;;;;5036198;28;20335;-56
2021/01/16 10:21:51;;;;;;;;;;;18.10;50.00;;;;;;5044654;28;19929;-56
2021/01/16 10:24:19;;;;;;;;;;;18.20;49.50;;;;;;5039943;28;19939;-56
2021/01/16 10:26:47;;;;;;;;;;;18.50;49.30;;;;;;5025654;28;19932;-57
2021/01/16 10:29:17;;;;;;;;;;;18.60;48.60;;;;;;5023861;28;20094;-56
2021/01/16 10:31:43;;;;;;;;;;;18.70;48.40;;;;;;5029338;28;20289;-56
2021/01/16 10:34:12;;;;;;;;;;;18.80;48.50;;;;;;5032186;28;20489;-56
2021/01/16 10:36:39;;;;;;;;;;;18.90;48.20;;;;;;5045927;28;19924;-57
2021/01/16 10:39:12;;;;;;;;;;;19.00;47.70;;;;;;5033531;28;19935;-56
2021/01/16 10:41:39;;;;;;;;;;;19.10;47.50;;;;;;5047343;28;19929;-55
2021/01/16 10:44:12;;;;;;;;;;;19.20;47.30;;;;;;5037008;28;19936;-55
2021/01/16 10:46:43;;;;;;;;;;;19.30;47.10;;;;;;5047880;28;19933;-56
2021/01/16 10:49:17;;;;;;;;;;;19.40;47.00;;;;;;5037929;28;19931;-57
2021/01/16 10:52:02;;;;;;;;;;;19.50;46.60;;;;;;5042607;28;19925;-56
2021/01/16 10:54:28;;;;;;;;;;;19.60;46.60;;;;;;5031024;28;20415;-57
2021/01/16 10:56:58;;;;;;;;;;;19.60;46.30;;;;;;5042542;28;19951;-59
2021/01/16 10:59:35;;;;;;;;;;;19.70;46.20;;;;;;5044759;28;20677;-59
2021/01/16 11:02:12;;;;;;;;;;;19.80;45.90;;;;;;5041617;28;19925;-60
2021/01/16 11:04:42;;;;;;;;;;;19.90;45.80;;;;;;5042428;28;19967;-58
2021/01/16 11:07:09;;;;;;;;;;;19.90;45.70;;;;;;5036514;28;19948;-59
2021/01/16 11:09:35;;;;;;;;;;;20.00;45.50;;;;;;5026654;28;19928;-56
2021/01/16 11:12:05;;;;;;;;;;;20.10;45.40;;;;;;5035690;28;20377;-57
2021/01/16 11:14:42;;;;;;;;;;;20.20;45.30;;;;;;5044314;28;20420;-57
2021/01/16 11:17:09;;;;;;;;;;;20.20;45.20;;;;;;5042465;28;19924;-56
2021/01/16 11:19:36;;;;;;;;;;;20.30;45.10;;;;;;5046683;28;19939;-56
2021/01/16 11:22:08;;;;;;;;;;;20.30;45.10;;;;;;5033333;28;19935;-57
2021/01/16 11:24:53;;;;;;;;;;;20.00;44.90;;;;;;5046650;28;19928;-57
2021/01/16 11:27:21;;;;;;;;;;;19.50;45.70;;;;;;5033139;28;19925;-57
2021/01/16 11:29:47;;;;;;;;;;;19.10;46.70;;;;;;5044964;28;20525;-56
2021/01/16 11:32:14;;;;;;;;;;;18.90;47.00;;;;;;5038795;28;19925;-56
2021/01/16 11:35:00;;;;;;;;;;;18.70;47.20;;;;;;5044868;28;19933;-57
2021/01/16 11:37:42;;;;;;;;;;;18.60;47.40;;;;;;5032675;28;19929;-57
2021/01/16 11:40:27;;;;;;;;;;;18.50;47.70;;;;;;5045159;28;20270;-56
2021/01/16 11:42:58;;;;;;;;;;;18.40;47.60;;;;;;5036152;28;19932;-57
2021/01/16 11:45:25;;;;;;;;;;;18.40;47.70;;;;;;5044303;28;21274;-58
2021/01/16 11:47:52;;;;;;;;;;;18.30;47.70;;;;;;5037735;28;19931;-58
2021/01/16 11:50:19;;;;;;;;;;;18.30;47.70;;;;;;5044445;28;20625;-56
2021/01/16 11:52:46;;;;;;;;;;;18.20;47.60;;;;;;5041452;28;20274;-56
2021/01/16 11:55:13;;;;;;;;;;;18.20;47.70;;;;;;5049632;28;19958;-57
2021/01/16 11:57:41;;;;;;;;;;;18.10;47.80;;;;;;5035441;28;19931;-56
2021/01/16 12:00:08;;;;;;;;;;;18.10;47.90;;;;;;5049754;28;19924;-61
2021/01/16 12:02:34;;;;;;;;;;;18.20;48.60;;;;;;5036843;28;21117;-61
2021/01/16 12:05:00;;;;;;;;;;;18.90;47.70;;;;;;5047718;28;19925;-61
2021/01/16 12:07:27;;;;;;;;;;;19.40;46.50;;;;;;5042283;28;20443;-62
2021/01/16 12:09:55;;;;;;;;;;;19.80;45.80;;;;;;5048980;28;19969;-62
2021/01/16 12:12:32;;;;;;;;;;;20.00;45.40;;;;;;5047042;28;20301;-64
2021/01/16 12:15:03;;;;;;;;;;;20.20;45.20;;;;;;5040409;28;19956;-62
2021/01/16 12:17:30;;;;;;;;;;;20.30;44.90;;;;;;5043561;28;20012;-62
2021/01/16 12:19:57;;;;;;;;;;;20.50;44.60;;;;;;5040710;28;20364;-61
2021/01/16 12:22:28;;;;;;;;;;;20.60;44.40;;;;;;5045153;28;19925;-61
2021/01/16 12:24:54;;;;;;;;;;;20.60;44.30;;;;;;5042806;28;19970;-64
2021/01/16 12:27:22;;;;;;;;;;;20.70;44.10;;;;;;5037031;28;19940;-60
2021/01/16 12:29:53;;;;;;;;;;;20.80;43.90;;;;;;5035871;28;19924;-60
2021/01/16 12:32:19;;;;;;;;;;;20.90;43.80;;;;;;5046717;28;19964;-60
2021/01/16 12:34:53;;;;;;;;;;;20.90;43.80;;;;;;5038799;28;20301;-61
2021/01/16 12:37:24;;;;;;;;;;;21.00;44.30;;;;;;5046883;28;19931;-59
2021/01/16 12:39:51;;;;;;;;;;;21.10;43.30;;;;;;5030612;28;19931;-59
2021/01/16 12:42:17;;;;;;;;;;;21.20;43.30;;;;;;5040545;28;19975;-61
2021/01/16 12:44:43;;;;;;;;;;;21.10;43.20;;;;;;5036884;28;19933;-62
2021/01/16 12:47:15;;;;;;;;;;;21.30;43.00;;;;;;5047287;28;19933;-62
2021/01/16 12:49:42;;;;;;;;;;;21.20;43.20;;;;;;5040673;28;20384;-60
2021/01/16 12:52:09;;;;;;;;;;;21.30;43.10;;;;;;5050145;28;19925;-59
2021/01/16 12:54:35;;;;;;;;;;;21.40;43.00;;;;;;5048126;28;19924;-59
2021/01/16 12:57:01;;;;;;;;;;;21.70;42.70;;;;;;5053057;28;19924;-61
2021/01/16 12:59:28;;;;;;;;;;;21.90;42.60;;;;;;5050110;28;19929;-61
2021/01/16 13:01:54;;;;;;;;;;;22.00;42.20;;;;;;5043799;28;19948;-62
2021/01/16 13:04:21;;;;;;;;;;;22.20;42.10;;;;;;5049450;28;19925;-61
2021/01/16 13:06:47;;;;;;;;;;;22.30;42.00;;;;;;5044848;28;19931;-60
2021/01/16 13:09:14;;;;;;;;;;;22.40;41.90;;;;;;5046979;28;19975;-60
2021/01/16 13:11:47;;;;;;;;;;;22.50;41.70;;;;;;5038846;28;19964;-60
2021/01/16 13:14:13;;;;;;;;;;;22.60;41.70;;;;;;5043851;28;19935;-60
2021/01/16 13:16:43;;;;;;;;;;;22.60;41.60;;;;;;5037318;28;20011;-60
2021/01/16 13:19:10;;;;;;;;;;;22.70;41.70;;;;;;5049832;28;19925;-59
2021/01/16 13:21:37;;;;;;;;;;;22.80;41.40;;;;;;5051165;28;20403;-59
2021/01/16 13:24:03;;;;;;;;;;;22.90;41.40;;;;;;5048572;28;21065;-59
2021/01/16 13:26:38;;;;;;;;;;;22.90;41.30;;;;;;5042799;28;19924;-61
2021/01/16 13:29:04;;;;;;;;;;;23.00;41.20;;;;;;5046785;28;19924;-59
2021/01/16 13:31:30;;;;;;;;;;;22.90;40.80;;;;;;5044939;28;19951;-58
2021/01/16 13:33:57;;;;;;;;;;;22.50;41.60;;;;;;5048414;28;19925;-59
2021/01/16 13:36:24;;;;;;;;;;;22.70;41.60;;;;;;5046081;28;19943;-59
2021/01/16 13:38:53;;;;;;;;;;;23.40;40.40;;;;;;5049603;28;19925;-61
2021/01/16 13:41:22;;;;;;;;;;;23.90;39.50;;;;;;5049044;28;20300;-59
2021/01/16 13:43:50;;;;;;;;;;;24.20;39.10;;;;;;5048656;28;20597;-59
2021/01/16 13:46:17;;;;;;;;;;;24.40;38.60;;;;;;5048824;28;19932;-59
2021/01/16 13:48:44;;;;;;;;;;;24.70;38.10;;;;;;5045620;28;20316;-59
2021/01/16 13:51:27;;;;;;;;;;;25.00;37.80;;;;;;5048484;28;19924;-59
2021/01/16 13:54:13;;;;;;;;;;;25.10;37.40;;;;;;5046087;28;19925;-59
2021/01/16 13:56:41;;;;;;;;;;;25.30;37.10;;;;;;5032220;28;19939;-59
2021/01/16 13:59:08;;;;;;;;;;;25.30;37.10;;;;;;5041355;28;19998;-60
2021/01/16 14:01:37;;;;;;;;;;;24.40;37.50;;;;;;5047481;28;20416;-60
2021/01/16 14:04:05;;;;;;;;;;;23.70;39.20;;;;;;5023485;28;19952;-60
2021/01/16 14:06:48;;;;;;;;;;;23.10;40.00;;;;;;5042677;28;19929;-61
2021/01/16 14:09:20;;;;;;;;;;;22.70;40.60;;;;;;5035951;28;19968;-60
2021/01/16 14:11:47;;;;;;;;;;;22.30;41.00;;;;;;5040020;28;20496;-60
2021/01/16 14:14:21;;;;;;;;;;;22.10;41.30;;;;;;5019312;28;19939;-61
2021/01/16 14:16:47;;;;;;;;;;;21.90;41.40;;;;;;5029515;28;20022;-60
2021/01/16 14:19:14;;;;;;;;;;;21.80;41.80;;;;;;5026368;28;19937;-60
2021/01/16 14:21:41;;;;;;;;;;;21.70;41.70;;;;;;5031109;28;19933;-61
2021/01/16 14:24:08;;;;;;;;;;;21.50;41.90;;;;;;5032720;28;20553;-60
2021/01/16 14:26:34;;;;;;;;;;;21.40;41.90;;;;;;5032856;28;19943;-60